Time;durP1;ratioP1;P1;durP2;ratioP2;P2;SDS_P1;SDS_P2;PMS_P1;PMS_P2;Temp;Humidity;BMP_temperature;BMP_pressure;BME280_temperature;BME280_humidity;BME280_pressure;Samples;Min_cycle;Max_cycle;Signal;HPM_P1;HPM_P2
2022/07/07 00:04:38;;;;;;;0.10;0.10;;;;;;;17.92;100.00;101943.81;10439983;28;20054;-79
2022/07/07 00:09:39;;;;;;;0.77;0.50;;;;;;;17.85;100.00;101931.56;10457191;28;20063;-79
2022/07/07 00:14:41;;;;;;;0.90;0.38;;;;;;;17.93;100.00;101926.41;10439860;28;20095;-78
2022/07/07 00:19:43;;;;;;;0.15;0.15;;;;;;;18.07;100.00;101919.66;10457542;28;20041;-79
2022/07/07 00:24:44;;;;;;;0.20;0.20;;;;;;;18.13;100.00;101915.38;10457491;28;20484;-78
2022/07/07 00:29:46;;;;;;;0.40;0.30;;;;;;;17.98;100.00;101910.88;10456626;28;20049;-79
2022/07/07 00:34:47;;;;;;;1.08;0.98;;;;;;;18.10;100.00;101895.34;10457258;28;20041;-79
2022/07/07 00:39:52;;;;;;;1.83;0.73;;;;;;;18.16;100.00;101886.72;10438246;28;20045;-79
2022/07/07 00:44:53;;;;;;;0.13;0.13;;;;;;;18.18;100.00;101882.41;10451477;28;20462;-79
2022/07/07 00:49:55;;;;;;;0.75;0.20;;;;;;;18.18;100.00;101877.19;10455268;28;20425;-79
2022/07/07 00:54:59;;;;;;;0.80;0.13;;;;;;;18.10;100.00;101884.06;10454988;28;20045;-79
2022/07/07 01:00:14;;;;;;;0.52;0.38;;;;;;;18.20;100.00;101875.47;10455462;28;20043;-79
2022/07/07 01:05:16;;;;;;;0.22;0.22;;;;;;;18.29;100.00;101870.31;10455500;28;20061;-78
2022/07/07 01:10:18;;;;;;;0.77;0.47;;;;;;;18.25;100.00;101863.34;10455696;28;20059;-78
2022/07/07 01:15:20;;;;;;;0.15;0.10;;;;;;;18.29;100.00;101859.88;10454385;28;20049;-78
2022/07/07 01:20:22;;;;;;;0.10;0.10;;;;;;;18.28;100.00;101852.91;10454584;28;20037;-79
2022/07/07 01:25:24;;;;;;;0.30;0.30;;;;;;;18.25;100.00;101837.25;10437343;28;20547;-78
2022/07/07 01:30:25;;;;;;;1.38;0.73;;;;;;;18.33;100.00;101840.81;10436131;28;20079;-77
2022/07/07 01:35:27;;;;;;;1.40;0.85;;;;;;;18.14;100.00;101844.09;10437083;28;20037;-78
2022/07/07 01:40:28;;;;;;;1.25;0.65;;;;;;;17.98;100.00;101853.50;10453362;28;20040;-78
2022/07/07 01:45:30;;;;;;;0.80;0.52;;;;;;;17.82;100.00;101862.88;10454727;28;20057;-79
2022/07/07 01:50:31;;;;;;;0.80;0.40;;;;;;;17.73;100.00;101867.13;10451491;28;20484;-78
2022/07/07 01:55:33;;;;;;;0.43;0.32;;;;;;;17.75;100.00;101868.03;10451285;28;20041;-78
2022/07/07 02:00:35;;;;;;;0.70;0.43;;;;;;;17.73;100.00;101861.91;10451323;28;20055;-79
2022/07/07 02:05:36;;;;;;;0.98;0.50;;;;;;;17.71;100.00;101847.97;10444071;28;20064;-78
2022/07/07 02:15:58;;;;;;;1.02;0.85;;;;;;;17.70;100.00;101843.63;10432915;28;20545;-77
2022/07/07 02:21:02;;;;;;;0.63;0.20;;;;;;;17.67;100.00;101833.19;10434606;28;20040;-77
2022/07/07 02:26:04;;;;;;;0.80;0.40;;;;;;;17.66;100.00;101826.22;10452644;28;20053;-78
2022/07/07 02:31:06;;;;;;;1.08;0.80;;;;;;;17.62;100.00;101829.63;10414239;28;20056;-78
2022/07/07 02:36:08;;;;;;;0.47;0.47;;;;;;;17.62;100.00;101824.41;10447787;28;20052;-78
2022/07/07 02:41:10;;;;;;;2.70;1.05;;;;;;;17.67;100.00;101827.97;10431262;28;20095;-77
2022/07/07 02:46:11;;;;;;;0.75;0.52;;;;;;;17.71;100.00;101821.91;10433559;28;20053;-78
2022/07/07 02:51:13;;;;;;;0.95;0.73;;;;;;;17.56;100.00;101824.34;10451336;28;20041;-78
2022/07/07 02:56:15;;;;;;;1.50;0.93;;;;;;;17.64;100.00;101817.50;10451353;28;20041;-78
2022/07/07 03:01:16;;;;;;;1.08;0.45;;;;;;;17.36;100.00;101824.09;10451083;28;20124;-77
2022/07/07 03:06:18;;;;;;;3.08;1.20;;;;;;;17.23;100.00;101828.31;10451351;28;20570;-76
2022/07/07 03:11:20;;;;;;;0.52;0.52;;;;;;;17.07;100.00;101825.50;10450702;28;20045;-76
2022/07/07 03:16:21;;;;;;;0.85;0.70;;;;;;;17.19;100.00;101823.91;10450612;28;20049;-76
2022/07/07 03:21:23;;;;;;;0.28;0.20;;;;;;;17.02;100.00;101823.66;10432510;28;20051;-76
2022/07/07 03:26:25;;;;;;;0.38;0.30;;;;;;;17.28;100.00;101824.03;10432843;28;20048;-77
2022/07/07 03:31:26;;;;;;;0.80;0.45;;;;;;;17.17;100.00;101825.59;10432129;28;20049;-77
2022/07/07 03:36:28;;;;;;;0.20;0.15;;;;;;;17.19;100.00;101824.78;10450382;28;20745;-77
2022/07/07 03:41:30;;;;;;;0.00;0.00;;;;;;;16.97;100.00;101818.41;10449921;28;20088;-77
2022/07/07 03:46:32;;;;;;;0.08;0.08;;;;;;;17.02;100.00;101826.28;10450543;28;20045;-77
2022/07/07 03:51:34;;;;;;;0.75;0.10;;;;;;;16.84;100.00;101827.72;10449353;28;20431;-77
2022/07/07 03:56:36;;;;;;;0.25;0.20;;;;;;;16.87;100.00;101817.38;10450506;28;20495;-77
2022/07/07 04:01:37;;;;;;;0.35;0.13;;;;;;;16.78;100.00;101812.91;10449954;28;20087;-77
2022/07/07 04:06:39;;;;;;;0.35;0.28;;;;;;;16.68;100.00;101813.63;10450339;28;20144;-77
2022/07/07 04:11:41;;;;;;;0.43;0.30;;;;;;;16.66;100.00;101820.50;10449272;28;21408;-77
2022/07/07 04:16:42;;;;;;;0.30;0.30;;;;;;;16.58;100.00;101814.31;10449260;28;20403;-77
2022/07/07 04:21:44;;;;;;;0.20;0.20;;;;;;;16.51;100.00;101818.56;10449337;28;20433;-76
2022/07/07 04:26:45;;;;;;;0.00;0.00;;;;;;;16.64;100.00;101824.84;10450664;28;20044;-77
2022/07/07 04:31:47;;;;;;;0.08;0.08;;;;;;;16.61;100.00;101827.38;10456055;28;20516;-77
2022/07/07 04:36:49;;;;;;;0.10;0.10;;;;;;;16.70;100.00;101824.03;10439374;28;20496;-77
2022/07/07 04:41:50;;;;;;;0.20;0.20;;;;;;;16.58;100.00;101819.50;10455788;28;20251;-76
2022/07/07 04:46:52;;;;;;;0.28;0.20;;;;;;;16.53;100.00;101829.84;10456076;28;20052;-77
2022/07/07 04:51:55;;;;;;;0.50;0.25;;;;;;;16.58;100.00;101836.00;10455452;28;20063;-76
2022/07/07 04:56:56;;;;;;;0.55;0.47;;;;;;;16.72;100.00;101838.81;10456901;28;20106;-77
2022/07/07 05:01:58;;;;;;;0.00;0.00;;;;;;;16.68;100.00;101839.63;10455290;28;20044;-76
2022/07/07 05:07:00;;;;;;;0.00;0.00;;;;;;;16.56;100.00;101847.25;10456033;28;20055;-77
2022/07/07 05:12:02;;;;;;;0.20;0.20;;;;;;;16.49;100.00;101856.66;10454851;28;20040;-77
2022/07/07 05:17:04;;;;;;;0.25;0.20;;;;;;;16.58;100.00;101863.75;10437473;28;20041;-78
2022/07/07 05:22:05;;;;;;;0.10;0.10;;;;;;;16.45;100.00;101860.94;10449427;28;20044;-77
2022/07/07 05:27:07;;;;;;;0.03;0.03;;;;;;;16.60;100.00;101862.94;10442735;28;20083;-78
2022/07/07 05:32:09;;;;;;;0.93;0.20;;;;;;;16.83;100.00;101871.94;10450796;28;20041;-77
2022/07/07 05:37:10;;;;;;;0.63;0.10;;;;;;;16.63;100.00;101870.78;10450658;28;20103;-77
2022/07/07 05:42:12;;;;;;;0.00;0.00;;;;;;;16.54;100.00;101880.16;10451787;28;20477;-76
2022/07/07 05:47:13;;;;;;;0.30;0.10;;;;;;;16.49;100.00;101899.16;10433642;28;20549;-77
2022/07/07 05:52:21;;;;;;;0.00;0.00;;;;;;;16.17;100.00;101922.88;10451980;28;20091;-77
2022/07/07 05:57:24;;;;;;;0.00;0.00;;;;;;;15.93;100.00;101944.06;10452353;28;20606;-75
2022/07/07 06:02:25;;;;;;;0.00;0.00;;;;;;;15.95;100.00;101949.28;10460896;28;20480;-76
2022/07/07 06:07:27;;;;;;;0.00;0.00;;;;;;;16.12;100.00;101955.69;10460849;28;20124;-76
2022/07/07 06:12:29;;;;;;;0.00;0.00;;;;;;;16.57;100.00;101947.88;10452366;28;20087;-77
2022/07/07 06:17:31;;;;;;;0.00;0.00;;;;;;;16.95;100.00;101937.22;10450726;28;20037;-77
2022/07/07 06:22:52;;;;;;;0.10;0.10;;;;;;;16.68;100.00;101941.09;10434649;28;20049;-76
2022/07/07 06:27:54;;;;;;;0.00;0.00;;;;;;;16.65;100.00;101943.63;10451034;28;20595;-77
2022/07/07 06:32:56;;;;;;;0.00;0.00;;;;;;;16.46;100.00;101951.13;10449691;28;20452;-77
2022/07/07 06:37:58;;;;;;;0.57;0.13;;;;;;;16.53;100.00;101946.91;10448112;28;20087;-76
2022/07/07 06:43:00;;;;;;;0.00;0.00;;;;;;;16.54;100.00;101963.41;10451220;28;20036;-77
2022/07/07 06:48:03;;;;;;;0.57;0.30;;;;;;;15.97;100.00;101986.59;10431916;28;20053;-77
2022/07/07 06:53:05;;;;;;;0.00;0.00;;;;;;;15.57;100.00;102001.25;10448235;28;20045;-76
2022/07/07 06:58:07;;;;;;;0.00;0.00;;;;;;;15.71;100.00;101994.66;10431020;28;20045;-77
2022/07/07 07:03:08;;;;;;;0.47;0.25;;;;;;;15.95;100.00;101978.72;10446446;28;20053;-78
2022/07/07 07:08:10;;;;;;;0.22;0.13;;;;;;;16.28;100.00;101981.97;10450755;28;20048;-78
2022/07/07 07:13:12;;;;;;;19.38;0.52;;;;;;;16.77;100.00;101980.31;10432021;28;20546;-78
2022/07/07 07:18:13;;;;;;;0.00;0.00;;;;;;;17.66;100.00;101987.78;10450673;28;20110;-76
2022/07/07 07:23:15;;;;;;;0.00;0.00;;;;;;;16.86;100.00;101999.53;10439521;28;20523;-77
2022/07/07 07:28:19;;;;;;;0.00;0.00;;;;;;;16.98;100.00;102004.13;10439700;28;20381;-77
2022/07/07 07:33:21;;;;;;;0.75;0.75;;;;;;;16.75;100.00;102002.81;10410871;28;20187;-76
2022/07/07 07:38:22;;;;;;;0.08;0.08;;;;;;;16.84;100.00;102017.69;10433500;28;20041;-77
2022/07/07 07:43:27;;;;;;;0.10;0.10;;;;;;;17.60;100.00;102008.53;10446464;28;20064;-76
2022/07/07 07:48:29;;;;;;;0.00;0.00;;;;;;;17.20;100.00;102028.75;10429382;28;20037;-77
2022/07/07 07:53:30;;;;;;;0.00;0.00;;;;;;;17.35;100.00;102023.81;10448725;28;20053;-77
2022/07/07 07:58:32;;;;;;;0.00;0.00;;;;;;;17.75;100.00;102008.75;10449350;28;20095;-77
2022/07/07 08:03:34;;;;;;;0.00;0.00;;;;;;;17.91;100.00;102019.38;10446291;28;20080;-77
2022/07/07 08:08:36;;;;;;;0.00;0.00;;;;;;;17.81;100.00;102030.53;10434356;28;20045;-77
2022/07/07 08:13:37;;;;;;;0.40;0.20;;;;;;;17.64;100.00;102031.19;10454514;28;20075;-78
2022/07/07 08:18:39;;;;;;;0.00;0.00;;;;;;;19.00;100.00;102026.72;10453709;28;20086;-77
2022/07/07 08:23:41;;;;;;;1.75;0.15;;;;;;;18.66;100.00;102037.69;10454012;28;20083;-78
2022/07/07 08:28:42;;;;;;;0.00;0.00;;;;;;;17.76;100.00;102036.56;10453399;28;20044;-79
2022/07/07 08:33:44;;;;;;;0.00;0.00;;;;;;;17.33;100.00;102041.13;10451687;28;20057;-77
2022/07/07 08:38:45;;;;;;;0.00;0.00;;;;;;;17.77;100.00;102034.84;10450481;28;20117;-77
2022/07/07 08:43:47;;;;;;;0.00;0.00;;;;;;;18.80;100.00;102050.03;10452433;28;20033;-78
2022/07/07 08:48:51;;;;;;;0.00;0.00;;;;;;;18.47;100.00;102067.06;10451809;28;20036;-77
2022/07/07 08:53:52;;;;;;;0.08;0.00;;;;;;;16.57;100.00;102098.75;10435172;28;20048;-78
2022/07/07 08:58:54;;;;;;;0.00;0.00;;;;;;;16.30;100.00;102126.81;10435972;28;20124;-78
2022/07/07 09:04:05;;;;;;;0.00;0.00;;;;;;;16.92;100.00;102132.38;10447692;28;20094;-77
2022/07/07 09:09:08;;;;;;;0.00;0.00;;;;;;;17.63;100.00;102118.03;10450630;28;20045;-78
2022/07/07 09:14:12;;;;;;;0.00;0.00;;;;;;;18.45;100.00;102094.84;10450930;28;20049;-78
2022/07/07 09:19:25;;;;;;;0.00;0.00;;;;;;;18.19;100.00;102103.25;10449283;28;20056;-78
2022/07/07 09:24:27;;;;;;;0.00;0.00;;;;;;;17.76;100.00;102114.75;10450839;28;20129;-78
2022/07/07 09:29:30;;;;;;;0.00;0.00;;;;;;;17.77;100.00;102115.66;10453529;28;20400;-78
2022/07/07 09:34:37;;;;;;;0.00;0.00;;;;;;;18.04;100.00;102120.44;10430721;28;20454;-78
2022/07/07 09:39:38;;;;;;;0.17;0.10;;;;;;;17.98;100.00;102125.56;10446453;28;20049;-78
2022/07/07 09:45:04;;;;;;;0.03;0.00;;;;;;;18.05;100.00;102130.00;10450072;28;20167;-78
2022/07/07 09:50:11;;;;;;;0.30;0.10;;;;;;;17.55;100.00;102140.47;10449399;28;20087;-78
2022/07/07 09:55:14;;;;;;;0.22;0.00;;;;;;;18.35;100.00;102146.03;10450505;28;20044;-78
2022/07/07 10:00:16;;;;;;;0.00;0.00;;;;;;;19.10;100.00;102150.47;10450373;28;20037;-78
2022/07/07 10:05:19;;;;;;;0.00;0.00;;;;;;;18.53;100.00;102161.06;10447396;28;20052;-78
2022/07/07 10:10:29;;;;;;;0.00;0.00;;;;;;;17.99;100.00;102166.41;10448585;28;20091;-79
2022/07/07 10:15:32;;;;;;;0.80;0.30;;;;;;;17.60;100.00;102186.59;10449685;28;20053;-77
2022/07/07 10:20:34;;;;;;;0.00;0.00;;;;;;;17.25;100.00;102188.56;10449408;28;20452;-78
2022/07/07 10:25:35;;;;;;;0.05;0.00;;;;;;;17.50;100.00;102194.25;10430682;28;20094;-78
2022/07/07 10:30:37;;;;;;;0.00;0.00;;;;;;;17.96;100.00;102189.84;10432732;28;20495;-76
2022/07/07 10:35:43;;;;;;;0.10;0.10;;;;;;;19.74;100.00;102183.25;10447347;28;20551;-77
2022/07/07 10:40:52;;;;;;;0.00;0.00;;;;;;;19.15;100.00;102187.94;10441193;28;20029;-78
2022/07/07 10:45:55;;;;;;;0.10;0.10;;;;;;;18.58;100.00;102185.47;10434856;28;20049;-78
2022/07/07 10:51:16;;;;;;;0.00;0.00;;;;;;;18.02;100.00;102205.56;10447876;28;20044;-77
2022/07/07 10:56:18;;;;;;;0.00;0.00;;;;;;;17.67;100.00;102229.31;10450384;28;20095;-78
2022/07/07 11:01:21;;;;;;;0.68;0.30;;;;;;;17.83;100.00;102240.00;10445591;28;20045;-78
2022/07/07 11:06:23;;;;;;;0.00;0.00;;;;;;;18.41;100.00;102229.63;10443230;28;20044;-78
2022/07/07 11:11:25;;;;;;;0.00;0.00;;;;;;;18.80;100.00;102236.25;10449474;28;20041;-78
2022/07/07 11:16:27;;;;;;;0.10;0.03;;;;;;;18.54;100.00;102230.69;10436277;28;20504;-78
2022/07/07 11:21:38;;;;;;;0.00;0.00;;;;;;;18.34;100.00;102233.88;10454364;28;20045;-78
2022/07/07 11:26:39;;;;;;;0.70;0.10;;;;;;;17.78;100.00;102255.56;10453117;28;20052;-77
2022/07/07 11:31:41;;;;;;;0.00;0.00;;;;;;;17.51;100.00;102275.03;10463202;28;20484;-79
2022/07/07 11:36:43;;;;;;;0.03;0.03;;;;;;;17.42;100.00;102280.94;10447053;28;20095;-79
2022/07/07 11:41:45;;;;;;;0.00;0.00;;;;;;;17.68;100.00;102304.03;10455528;28;20040;-79
2022/07/07 11:46:51;;;;;;;3.25;0.43;;;;;;;17.84;100.00;102304.28;10438295;28;20068;-78
2022/07/07 11:51:52;;;;;;;0.17;0.17;;;;;;;18.01;100.00;102300.28;10459199;28;20083;-79
2022/07/07 11:56:54;;;;;;;0.00;0.00;;;;;;;18.23;100.00;102303.25;10455977;28;20045;-80
2022/07/07 12:01:56;;;;;;;0.20;0.08;;;;;;;18.27;100.00;102302.47;10458316;28;20041;-79
2022/07/07 12:06:58;;;;;;;0.08;0.00;;;;;;;18.52;100.00;102287.19;10437102;28;20049;-78
2022/07/07 12:12:00;;;;;;;0.03;0.00;;;;;;;18.28;100.00;102295.50;10455980;28;20052;-79
2022/07/07 12:17:02;;;;;;;0.00;0.00;;;;;;;18.43;100.00;102300.13;10437279;28;20095;-78
2022/07/07 12:22:03;;;;;;;0.00;0.00;;;;;;;18.39;100.00;102307.00;10443924;28;21200;-78
2022/07/07 12:27:16;;;;;;;0.00;0.00;;;;;;;19.51;100.00;102304.16;10452851;28;20496;-78
2022/07/07 12:32:24;;;;;;;0.00;0.00;;;;;;;19.43;100.00;102305.81;10453103;28;20120;-79
2022/07/07 12:37:42;;;;;;;0.00;0.00;;;;;;;18.57;100.00;102319.47;10434441;28;20049;-78
2022/07/07 12:42:47;;;;;;;0.10;0.10;;;;;;;17.54;100.00;102347.16;10433349;28;20049;-79
2022/07/07 12:47:52;;;;;;;0.63;0.20;;;;;;;17.07;100.00;102364.44;10453392;28;20512;-79
2022/07/07 12:53:05;;;;;;;0.00;0.00;;;;;;;17.18;100.00;102363.78;10445832;28;20065;-79
2022/07/07 12:58:12;;;;;;;0.43;0.28;;;;;;;17.59;100.00;102369.00;10450500;28;20454;-78
2022/07/07 13:03:14;;;;;;;0.30;0.30;;;;;;;17.53;100.00;102377.56;10447516;28;20041;-76
2022/07/07 13:08:16;;;;;;;0.00;0.00;;;;;;;17.88;100.00;102382.59;10452840;28;20047;-77
2022/07/07 13:13:18;;;;;;;0.70;0.20;;;;;;;18.44;100.00;102374.91;10452064;28;20040;-77
2022/07/07 13:18:25;;;;;;;0.43;0.30;;;;;;;18.63;100.00;102382.19;10430587;28;20098;-77
2022/07/07 13:23:51;;;;;;;0.28;0.28;;;;;;;18.85;100.00;102366.88;10439944;28;20029;-78
2022/07/07 13:28:52;;;;;;;0.10;0.10;;;;;;;18.18;100.00;102388.41;10451856;28;20539;-77
2022/07/07 13:33:54;;;;;;;0.80;0.75;;;;;;;18.44;100.00;102395.78;10443817;28;20404;-77
2022/07/07 13:38:56;;;;;;;0.13;0.10;;;;;;;18.24;100.00;102398.94;10444029;28;20042;-77
2022/07/07 13:43:58;;;;;;;0.20;0.20;;;;;;;18.41;100.00;102407.03;10450700;28;20045;-76
2022/07/07 13:49:00;;;;;;;0.00;0.00;;;;;;;18.61;100.00;102420.44;10449835;28;20041;-77
2022/07/07 13:54:01;;;;;;;0.10;0.10;;;;;;;18.61;94.90;102416.97;10422784;28;20052;-77
2022/07/07 13:59:19;;;;;;;0.00;0.00;;;;;;;18.56;93.46;102429.94;10450875;28;20025;-78
2022/07/07 14:04:22;;;;;;;0.30;0.17;;;;;;;18.37;88.25;102432.22;10414842;28;20059;-77
2022/07/07 14:09:24;;;;;;;0.00;0.00;;;;;;;18.57;87.81;102436.91;10431483;28;20041;-78
2022/07/07 14:14:26;;;;;;;2.72;0.38;;;;;;;18.38;85.00;102439.19;10447351;28;20067;-78
2022/07/07 14:19:28;;;;;;;2.42;0.95;;;;;;;18.10;87.52;102448.22;10428003;28;20517;-77
2022/07/07 14:24:31;;;;;;;1.95;0.32;;;;;;;17.76;85.63;102464.03;10451306;28;20508;-76
2022/07/07 14:29:33;;;;;;;1.85;0.63;;;;;;;18.05;86.85;102468.13;10420445;28;20045;-78
2022/07/07 14:34:35;;;;;;;0.00;0.00;;;;;;;18.61;88.58;102462.22;10419139;28;20131;-77
2022/07/07 14:39:37;;;;;;;0.00;0.00;;;;;;;18.57;84.33;102460.41;10449875;28;20036;-76
2022/07/07 14:44:39;;;;;;;0.08;0.08;;;;;;;18.33;79.34;102466.94;10437478;28;20314;-77
2022/07/07 14:49:41;;;;;;;0.00;0.00;;;;;;;18.62;80.35;102474.41;10446834;28;20048;-79
2022/07/07 14:54:43;;;;;;;0.43;0.20;;;;;;;18.56;81.08;102479.53;10435806;28;20048;-78
2022/07/07 14:59:44;;;;;;;0.00;0.00;;;;;;;18.10;75.01;102478.66;10441926;28;20049;-80
2022/07/07 15:04:46;;;;;;;3.20;0.20;;;;;;;18.53;77.21;102487.28;10422750;28;20103;-79
2022/07/07 15:09:48;;;;;;;0.35;0.13;;;;;;;18.51;73.52;102491.59;10447117;28;20041;-77
2022/07/07 15:14:50;;;;;;;0.20;0.20;;;;;;;18.38;76.20;102500.94;10436768;28;20111;-78
2022/07/07 15:19:52;;;;;;;0.47;0.32;;;;;;;18.50;72.88;102502.91;10439168;28;20048;-78
2022/07/07 15:24:54;;;;;;;0.93;0.38;;;;;;;18.32;73.62;102501.69;10433058;28;20045;-77
2022/07/07 15:29:57;;;;;;;0.10;0.10;;;;;;;18.08;71.52;102513.41;10432339;28;20080;-77
2022/07/07 15:35:15;;;;;;;0.47;0.47;;;;;;;18.24;73.89;102513.72;10431688;28;20060;-78
2022/07/07 15:40:16;;;;;;;0.00;0.00;;;;;;;18.12;74.02;102522.16;10449218;28;20045;-78
2022/07/07 15:45:18;;;;;;;0.17;0.17;;;;;;;17.92;77.34;102530.44;10449519;28;20053;-78
2022/07/07 15:50:20;;;;;;;0.32;0.10;;;;;;;17.83;72.79;102534.56;10448613;28;20037;-77
2022/07/07 15:55:22;;;;;;;0.28;0.03;;;;;;;18.07;73.10;102542.06;10429200;28;20107;-79
2022/07/07 16:00:24;;;;;;;0.52;0.10;;;;;;;18.32;76.31;102543.44;10428430;28;20072;-77
2022/07/07 16:05:26;;;;;;;1.55;0.85;;;;;;;18.18;75.68;102544.91;10423007;28;20077;-79
2022/07/07 16:10:28;;;;;;;0.10;0.08;;;;;;;18.11;75.14;102550.84;10428528;28;20385;-79
2022/07/07 16:15:30;;;;;;;0.00;0.00;;;;;;;18.01;72.74;102558.47;10451298;28;20550;-78
2022/07/07 16:20:31;;;;;;;0.03;0.03;;;;;;;18.49;77.27;102550.72;10435649;28;20094;-78
2022/07/07 16:25:33;;;;;;;1.00;0.20;;;;;;;18.32;78.46;102559.09;10427601;28;20492;-78
2022/07/07 16:30:35;;;;;;;0.28;0.20;;;;;;;18.10;77.48;102557.75;10444367;28;20115;-77
2022/07/07 16:35:37;;;;;;;2.08;0.22;;;;;;;17.88;79.54;102566.84;10450939;28;20047;-79
2022/07/07 16:40:40;;;;;;;0.50;0.20;;;;;;;18.05;81.43;102573.34;10434175;28;20033;-79
2022/07/07 16:45:42;;;;;;;0.00;0.00;;;;;;;17.92;81.15;102573.88;10429933;28;20048;-78
2022/07/07 16:50:43;;;;;;;0.28;0.15;;;;;;;18.02;81.07;102585.44;10466199;28;20401;-79
2022/07/07 16:55:45;;;;;;;2.55;0.95;;;;;;;17.83;81.64;102584.09;10469859;28;20049;-79
2022/07/07 17:00:48;;;;;;;0.60;0.05;;;;;;;17.59;79.94;102586.16;10446172;28;20048;-78
2022/07/07 17:05:50;;;;;;;0.85;0.43;;;;;;;17.52;81.37;102591.22;10452410;28;20082;-79
2022/07/07 17:10:52;;;;;;;0.55;0.05;;;;;;;17.70;81.54;102591.63;10435624;28;20426;-78
2022/07/07 17:15:55;;;;;;;0.55;0.10;;;;;;;17.92;81.66;102584.28;10448297;28;20049;-78
2022/07/07 17:20:56;;;;;;;0.00;0.00;;;;;;;17.54;79.72;102586.88;10441676;28;20049;-79
2022/07/07 17:25:58;;;;;;;0.00;0.00;;;;;;;17.32;81.15;102590.72;10445072;28;20151;-77
2022/07/07 17:31:00;;;;;;;1.38;0.30;;;;;;;17.18;82.12;102591.25;10454166;28;20063;-78
2022/07/07 17:36:03;;;;;;;0.10;0.10;;;;;;;17.43;83.64;102592.75;10435153;28;20060;-78
2022/07/07 17:41:05;;;;;;;0.28;0.20;;;;;;;17.29;86.11;102591.53;10439087;28;20124;-79
2022/07/07 17:46:06;;;;;;;0.03;0.03;;;;;;;17.55;86.06;102599.97;10437084;28;20079;-78
2022/07/07 17:51:08;;;;;;;0.00;0.00;;;;;;;17.24;89.33;102613.94;10461004;28;20523;-79
2022/07/07 17:56:10;;;;;;;0.20;0.20;;;;;;;17.26;89.11;102623.59;10453991;28;20124;-78
2022/07/07 18:01:13;;;;;;;0.05;0.05;;;;;;;17.14;87.76;102618.03;10453388;28;20090;-79
2022/07/07 18:06:15;;;;;;;0.00;0.00;;;;;;;17.03;85.81;102624.72;10453885;28;20694;-77
2022/07/07 18:11:17;;;;;;;0.00;0.00;;;;;;;17.06;85.12;102630.88;10453987;28;20056;-78
2022/07/07 18:16:19;;;;;;;0.00;0.00;;;;;;;16.83;85.27;102631.94;10450011;28;20033;-78
2022/07/07 18:21:21;;;;;;;2.60;0.32;;;;;;;16.94;87.41;102633.16;10446447;28;20033;-78
2022/07/07 18:26:23;;;;;;;0.10;0.08;;;;;;;16.77;87.48;102648.25;10417048;28;20048;-79
2022/07/07 18:31:24;;;;;;;0.13;0.13;;;;;;;16.83;89.62;102647.56;10434364;28;20043;-78
2022/07/07 18:36:26;;;;;;;0.20;0.17;;;;;;;16.73;87.94;102655.09;10449530;28;20059;-78
2022/07/07 18:41:28;;;;;;;0.00;0.00;;;;;;;16.76;87.83;102656.91;10428791;28;20492;-78
2022/07/07 18:46:29;;;;;;;0.10;0.10;;;;;;;16.77;88.75;102669.97;10448794;28;20062;-77
2022/07/07 18:51:34;;;;;;;0.00;0.00;;;;;;;16.67;90.38;102680.09;10452091;28;20044;-77
2022/07/07 18:56:37;;;;;;;0.52;0.13;;;;;;;16.68;89.83;102685.31;10452030;28;20052;-78
2022/07/07 19:01:39;;;;;;;0.93;0.85;;;;;;;16.44;92.12;102698.50;10433417;28;20049;-78
2022/07/07 19:06:40;;;;;;;0.00;0.00;;;;;;;16.45;89.26;102703.72;10444818;28;20111;-77
2022/07/07 19:11:43;;;;;;;0.52;0.40;;;;;;;16.37;88.23;102705.22;10443598;28;20124;-78
2022/07/07 19:16:45;;;;;;;0.47;0.10;;;;;;;16.50;88.04;102706.47;10451648;28;20053;-77
2022/07/07 19:21:47;;;;;;;0.00;0.00;;;;;;;16.50;90.23;102696.94;10444529;28;20498;-78
2022/07/07 19:26:49;;;;;;;0.00;0.00;;;;;;;16.51;91.14;102708.25;10433797;28;20045;-77
2022/07/07 19:31:52;;;;;;;5.07;0.73;;;;;;;16.33;91.04;102718.97;10432661;28;20124;-78
2022/07/07 19:36:54;;;;;;;0.10;0.05;;;;;;;16.15;92.84;102719.28;10433213;28;20057;-77
2022/07/07 19:41:56;;;;;;;0.43;0.10;;;;;;;16.20;91.66;102743.72;10432721;28;20056;-77
2022/07/07 19:46:58;;;;;;;0.45;0.10;;;;;;;16.13;92.77;102747.81;10451000;28;20045;-78
2022/07/07 19:52:00;;;;;;;6.55;0.13;;;;;;;16.09;93.82;102755.47;10431959;28;20166;-78
2022/07/07 19:57:02;;;;;;;0.00;0.00;;;;;;;16.22;93.51;102762.84;10448683;28;20040;-78
2022/07/07 20:02:16;;;;;;;0.38;0.38;;;;;;;16.20;94.91;102774.00;10457947;28;20049;-78
2022/07/07 20:07:18;;;;;;;0.00;0.00;;;;;;;16.13;95.54;102783.34;10439837;28;20056;-79
2022/07/07 20:12:19;;;;;;;0.20;0.10;;;;;;;15.98;96.36;102783.69;10458067;28;20047;-78
2022/07/07 20:17:21;;;;;;;0.00;0.00;;;;;;;15.96;95.74;102785.41;10439904;28;20535;-78
2022/07/07 20:22:23;;;;;;;0.00;0.00;;;;;;;15.89;95.94;102793.81;10440020;28;20041;-77
2022/07/07 20:27:25;;;;;;;3.53;0.95;;;;;;;15.85;94.73;102798.03;10439696;28;20050;-79
2022/07/07 20:32:28;;;;;;;0.65;0.30;;;;;;;15.94;95.31;102813.03;10452363;28;20033;-78
2022/07/07 20:37:30;;;;;;;0.00;0.00;;;;;;;15.74;96.52;102813.22;10434487;28;20037;-77
2022/07/07 20:42:32;;;;;;;0.10;0.10;;;;;;;15.73;96.51;102813.13;10428618;28;20044;-79
2022/07/07 20:47:35;;;;;;;0.00;0.00;;;;;;;15.67;97.42;102819.91;10438385;28;20045;-78
2022/07/07 20:52:38;;;;;;;0.00;0.00;;;;;;;15.70;97.12;102829.50;10418828;28;20064;-78
2022/07/07 20:57:40;;;;;;;0.00;0.00;;;;;;;15.70;97.21;102838.22;10452194;28;20076;-78
2022/07/07 21:02:42;;;;;;;0.10;0.00;;;;;;;15.61;98.22;102845.66;10454987;28;20033;-78
2022/07/07 21:07:43;;;;;;;0.05;0.05;;;;;;;15.55;97.81;102848.03;10446296;28;20096;-78
2022/07/07 21:12:45;;;;;;;0.00;0.00;;;;;;;15.26;99.20;102845.25;10434048;28;20048;-79
2022/07/07 21:17:47;;;;;;;0.10;0.10;;;;;;;15.18;98.96;102846.69;10422395;28;20045;-78
2022/07/07 21:22:52;;;;;;;0.55;0.00;;;;;;;15.19;100.00;102857.13;10427782;28;20047;-79
2022/07/07 21:27:54;;;;;;;0.00;0.00;;;;;;;15.22;100.00;102871.91;10434020;28;20646;-79
2022/07/07 21:32:55;;;;;;;0.00;0.00;;;;;;;14.97;100.00;102870.09;10448595;28;20044;-78
2022/07/07 21:37:59;;;;;;;0.00;0.00;;;;;;;14.72;100.00;102875.19;10433615;28;20522;-79
2022/07/07 21:43:19;;;;;;;0.10;0.00;;;;;;;14.80;100.00;102880.69;10433399;28;20129;-78
2022/07/07 21:48:21;;;;;;;0.05;0.05;;;;;;;14.73;100.00;102876.06;10436114;28;20130;-79
2022/07/07 21:53:24;;;;;;;0.00;0.00;;;;;;;14.41;100.00;102878.19;10433354;28;20041;-78
2022/07/07 21:58:27;;;;;;;0.00;0.00;;;;;;;14.16;100.00;102892.72;10435577;28;20404;-78
2022/07/07 22:08:50;;;;;;;0.00;0.00;;;;;;;14.22;100.00;102899.88;10433627;28;20504;-78
2022/07/07 22:13:51;;;;;;;0.00;0.00;;;;;;;14.27;100.00;102912.19;10415604;28;20049;-79
2022/07/07 22:18:53;;;;;;;0.20;0.00;;;;;;;14.52;100.00;102908.06;10431130;28;20494;-78
2022/07/07 22:23:55;;;;;;;0.60;0.17;;;;;;;14.42;100.00;102911.97;10436806;28;20517;-78
2022/07/07 22:28:56;;;;;;;0.00;0.00;;;;;;;14.38;100.00;102919.56;10447942;28;20045;-78
2022/07/07 22:34:00;;;;;;;0.00;0.00;;;;;;;14.34;100.00;102915.06;10441513;28;20043;-78
2022/07/07 22:39:03;;;;;;;2.13;0.13;;;;;;;14.33;100.00;102916.78;10423281;28;20344;-77
2022/07/07 22:44:05;;;;;;;5.28;0.57;;;;;;;14.21;100.00;102924.91;10422055;28;20496;-77
2022/07/07 22:49:07;;;;;;;0.47;0.47;;;;;;;14.05;100.00;102925.06;10440905;28;20112;-77
2022/07/07 22:54:09;;;;;;;0.00;0.00;;;;;;;14.03;100.00;102935.34;10439287;28;20519;-78
2022/07/07 22:59:10;;;;;;;0.00;0.00;;;;;;;13.93;100.00;102931.47;10442337;28;20057;-77
2022/07/07 23:04:12;;;;;;;0.00;0.00;;;;;;;13.86;100.00;102934.63;10441065;28;20037;-78
2022/07/07 23:09:14;;;;;;;0.00;0.00;;;;;;;13.92;100.00;102944.38;10458365;28;20049;-78
2022/07/07 23:14:16;;;;;;;0.17;0.10;;;;;;;13.80;100.00;102942.13;10457425;28;20083;-77